createdAt,value
2022-09-18T00:00:17.055Z,1.51
2022-09-18T00:01:17.017Z,1.65
2022-09-18T00:02:17.122Z,1.18
2022-09-18T00:03:17.142Z,1.32
2022-09-18T00:04:17.058Z,1.29
2022-09-18T00:05:17.038Z,1.43
2022-09-18T00:06:17.061Z,1.24
2022-09-18T00:07:17.115Z,1.38
2022-09-18T00:08:17.082Z,1.39
2022-09-18T00:09:17.113Z,1.29
2022-09-18T00:10:17.050Z,1.58
2022-09-18T00:11:17.061Z,1.61
2022-09-18T00:13:17.078Z,1.26
2022-09-18T00:14:17.085Z,1.45
2022-09-18T00:15:17.064Z,1.31
2022-09-18T00:16:17.098Z,1.56
2022-09-18T00:17:17.078Z,1.43
2022-09-18T00:18:17.117Z,1.37
2022-09-18T00:19:17.128Z,1.29
2022-09-18T00:20:17.131Z,1.57
2022-09-18T00:21:17.114Z,1.27
2022-09-18T00:22:17.104Z,1.64
2022-09-18T00:24:17.138Z,1.33
2022-09-18T00:25:17.118Z,1.65
2022-09-18T00:26:17.269Z,1.36
2022-09-18T00:27:17.123Z,1.35
2022-09-18T00:28:17.134Z,1.23
2022-09-18T00:29:17.128Z,1.24
2022-09-18T00:31:17.384Z,0.89
2022-09-18T00:32:17.145Z,1.29
2022-09-18T00:33:17.119Z,1.35
2022-09-18T00:34:17.156Z,1.26
2022-09-18T00:35:17.137Z,1.24
2022-09-18T00:36:17.165Z,1.54
2022-09-18T00:38:17.152Z,1.14
2022-09-18T00:40:17.228Z,1.34
2022-09-18T00:43:17.158Z,1.32
2022-09-18T00:44:17.170Z,1.02
2022-09-18T00:45:17.161Z,1.14
2022-09-18T00:46:17.225Z,1.25
2022-09-18T00:47:17.197Z,1.19
2022-09-18T00:48:17.167Z,1.26
2022-09-18T00:49:17.174Z,1.14
2022-09-18T00:50:17.148Z,1.25
2022-09-18T00:51:17.195Z,1.46
2022-09-18T00:52:17.171Z,1.60
2022-09-18T00:53:17.180Z,1.37
2022-09-18T00:54:17.185Z,1.52
2022-09-18T00:55:17.196Z,1.53
2022-09-18T00:56:17.186Z,1.26
2022-09-18T00:57:17.181Z,1.29
2022-09-18T00:58:17.184Z,1.47
2022-09-18T00:59:17.224Z,1.33
2022-09-18T01:01:17.227Z,1.76
2022-09-18T01:02:17.281Z,1.55
2022-09-18T01:03:17.195Z,1.16
2022-09-18T01:04:17.185Z,1.33
2022-09-18T01:05:17.185Z,1.42
2022-09-18T01:06:17.178Z,1.67
2022-09-18T01:07:17.231Z,1.68
2022-09-18T01:08:17.224Z,1.11
2022-09-18T01:09:27.962Z,1.67
2022-09-18T01:10:17.248Z,1.55
2022-09-18T01:11:17.210Z,1.51
2022-09-18T01:13:17.271Z,1.65
2022-09-18T01:14:17.208Z,1.66
2022-09-18T01:15:17.244Z,1.22
2022-09-18T01:16:17.289Z,1.33
2022-09-18T01:17:17.246Z,1.27
2022-09-18T01:18:17.246Z,1.03
2022-09-18T01:19:17.224Z,1.52
2022-09-18T01:20:17.273Z,1.39
2022-09-18T01:21:17.245Z,1.18
2022-09-18T01:22:17.231Z,1.54
2022-09-18T01:24:17.262Z,1.38
2022-09-18T01:25:17.274Z,1.69
2022-09-18T01:26:17.257Z,1.23
2022-09-18T01:27:17.259Z,1.39
2022-09-18T01:29:17.237Z,1.28
2022-09-18T01:31:17.388Z,1.38
2022-09-18T01:32:17.266Z,1.68
2022-09-18T01:33:17.279Z,1.49
2022-09-18T01:34:17.273Z,1.42
2022-09-18T01:35:39.499Z,0.99
2022-09-18T01:36:17.293Z,1.47
2022-09-18T01:39:17.303Z,1.36
2022-09-18T01:40:17.334Z,1.24
2022-09-18T01:41:17.272Z,1.35
2022-09-18T01:42:17.294Z,1.52
2022-09-18T01:43:17.271Z,1.45
2022-09-18T01:44:17.292Z,1.13
2022-09-18T01:45:17.330Z,1.39
2022-09-18T01:46:17.328Z,1.26
2022-09-18T01:47:17.292Z,1.53
2022-09-18T01:48:17.303Z,1.40
2022-09-18T01:49:17.310Z,1.30
2022-09-18T01:50:17.305Z,1.42
2022-09-18T01:51:17.310Z,1.09
2022-09-18T01:52:17.317Z,1.41
2022-09-18T01:53:17.306Z,1.17
2022-09-18T01:54:17.307Z,1.22
2022-09-18T01:55:17.329Z,1.51
2022-09-18T01:56:17.345Z,1.50
2022-09-18T01:57:17.342Z,1.32
2022-09-18T02:01:17.429Z,1.52
2022-09-18T02:02:17.441Z,1.78
2022-09-18T02:03:17.351Z,1.37
2022-09-18T02:04:17.360Z,1.02
2022-09-18T02:05:17.365Z,1.28
2022-09-18T02:06:17.350Z,1.13
2022-09-18T02:07:17.352Z,1.41
2022-09-18T02:08:17.348Z,1.32
2022-09-18T02:09:17.362Z,1.31
2022-09-18T02:10:17.376Z,1.40
2022-09-18T02:11:17.362Z,1.39
2022-09-18T02:12:17.346Z,1.32
2022-09-18T02:13:17.357Z,1.24
2022-09-18T02:14:17.416Z,1.31
2022-09-18T02:16:17.535Z,1.15
2022-09-18T02:17:17.380Z,1.10
2022-09-18T02:18:17.398Z,1.23
2022-09-18T02:19:17.390Z,1.49
2022-09-18T02:20:17.397Z,1.16
2022-09-18T02:21:17.390Z,1.06
2022-09-18T02:22:17.407Z,1.30
2022-09-18T02:23:17.383Z,1.09
2022-09-18T02:24:17.397Z,1.38
2022-09-18T02:25:17.402Z,1.23
2022-09-18T02:26:17.395Z,1.22
2022-09-18T02:27:17.393Z,1.24
2022-09-18T02:28:17.408Z,1.32
2022-09-18T02:29:17.405Z,1.50
2022-09-18T02:30:17.426Z,1.40
2022-09-18T02:32:17.409Z,1.28
2022-09-18T02:33:17.429Z,1.07
2022-09-18T02:34:17.409Z,1.32
2022-09-18T02:35:17.434Z,1.24
2022-09-18T02:37:17.437Z,1.16
2022-09-18T02:38:17.417Z,1.07
2022-09-18T02:39:17.437Z,1.06
2022-09-18T02:40:17.523Z,1.09
2022-09-18T02:42:17.450Z,0.94
2022-09-18T02:43:17.449Z,1.59
2022-09-18T02:44:17.468Z,1.40
2022-09-18T02:45:17.465Z,1.46
2022-09-18T02:46:17.583Z,1.26
2022-09-18T02:47:17.461Z,1.15
2022-09-18T02:48:17.448Z,1.15
2022-09-18T02:49:17.481Z,1.29
2022-09-18T02:50:17.480Z,1.49
2022-09-18T02:52:17.471Z,1.13
2022-09-18T02:53:17.462Z,1.23
2022-09-18T02:54:17.506Z,1.39
2022-09-18T02:56:17.551Z,1.10
2022-09-18T02:59:17.497Z,1.64
2022-09-18T03:00:17.494Z,0.96
2022-09-18T03:02:17.552Z,1.07
2022-09-18T03:03:17.503Z,1.16
2022-09-18T03:05:17.486Z,1.50
2022-09-18T03:06:17.502Z,1.56
2022-09-18T03:07:17.527Z,1.10
2022-09-18T03:08:17.485Z,1.23
2022-09-18T03:09:17.564Z,1.16
2022-09-18T03:10:17.544Z,1.11
2022-09-18T03:12:17.536Z,1.21
2022-09-18T03:13:17.519Z,1.38
2022-09-18T03:14:17.536Z,0.85
2022-09-18T03:15:17.506Z,1.11
2022-09-18T03:16:17.586Z,1.51
2022-09-18T03:19:17.538Z,1.29
2022-09-18T03:22:17.533Z,1.25
2022-09-18T03:23:17.549Z,1.28
2022-09-18T03:24:17.546Z,1.04
2022-09-18T03:25:17.531Z,1.01
2022-09-18T03:26:17.592Z,1.16
2022-09-18T03:29:17.594Z,1.11
2022-09-18T03:31:17.693Z,1.04
2022-09-18T03:32:17.573Z,1.49
2022-09-18T03:33:17.564Z,1.17
2022-09-18T03:34:17.585Z,1.37
2022-09-18T03:35:17.574Z,1.03
2022-09-18T03:36:17.597Z,1.34
2022-09-18T03:37:17.599Z,1.19
2022-09-18T03:38:17.570Z,1.27
2022-09-18T03:39:17.591Z,1.39
2022-09-18T03:40:17.641Z,1.07
2022-09-18T03:41:17.593Z,1.35
2022-09-18T03:42:17.602Z,1.11
2022-09-18T03:43:17.602Z,1.24
2022-09-18T03:45:17.590Z,1.30
2022-09-18T03:46:17.612Z,1.19
2022-09-18T03:47:17.624Z,1.18
2022-09-18T03:48:17.618Z,1.28
2022-09-18T03:49:17.606Z,1.12
2022-09-18T03:51:17.624Z,1.49
2022-09-18T03:52:17.611Z,1.70
2022-09-18T03:53:17.626Z,1.37
2022-09-18T03:54:17.624Z,0.91
2022-09-18T03:55:17.620Z,1.21
2022-09-18T03:56:17.641Z,1.29
2022-09-18T03:57:17.646Z,1.42
2022-09-18T03:58:17.644Z,1.14
2022-09-18T04:00:17.621Z,1.44
2022-09-18T04:01:17.663Z,1.32
2022-09-18T04:03:17.698Z,1.59
2022-09-18T04:04:17.661Z,1.36
2022-09-18T04:05:17.626Z,1.42
2022-09-18T04:06:17.656Z,1.29
2022-09-18T04:07:17.651Z,1.21
2022-09-18T04:08:17.653Z,1.20
2022-09-18T04:09:17.671Z,1.25
2022-09-18T04:10:17.695Z,1.22
2022-09-18T04:11:17.657Z,1.62
2022-09-18T04:12:17.651Z,1.63
2022-09-18T04:13:17.671Z,1.30
2022-09-18T04:14:17.688Z,1.36
2022-09-18T04:15:17.661Z,1.30
2022-09-18T04:16:17.792Z,1.16
2022-09-18T04:17:17.689Z,1.41
2022-09-18T04:20:17.729Z,1.10
2022-09-18T04:21:17.708Z,1.11
2022-09-18T04:22:17.700Z,1.36
2022-09-18T04:23:17.704Z,1.48
2022-09-18T04:26:17.723Z,0.96
2022-09-18T04:27:17.683Z,1.20
2022-09-18T04:28:17.707Z,1.53
2022-09-18T04:29:17.707Z,1.01
2022-09-18T04:30:17.704Z,1.35
2022-09-18T04:31:17.809Z,1.10
2022-09-18T04:32:17.714Z,1.24
2022-09-18T04:33:17.717Z,1.46
2022-09-18T04:34:17.726Z,1.22
2022-09-18T04:35:17.696Z,1.28
2022-09-18T04:37:17.744Z,1.47
2022-09-18T04:38:17.745Z,1.34
2022-09-18T04:39:17.718Z,1.50
2022-09-18T04:41:17.740Z,1.25
2022-09-18T04:43:17.763Z,1.39
2022-09-18T04:44:17.756Z,1.57
2022-09-18T04:46:17.774Z,1.65
2022-09-18T04:48:17.765Z,1.44
2022-09-18T04:50:17.769Z,1.54
2022-09-18T04:51:17.758Z,1.17
2022-09-18T04:52:17.773Z,1.40
2022-09-18T04:53:17.770Z,1.48
2022-09-18T04:54:17.753Z,1.25
2022-09-18T04:55:17.769Z,1.37
2022-09-18T04:56:17.792Z,1.29
2022-09-18T04:57:17.802Z,1.44
2022-09-18T04:58:17.791Z,1.59
2022-09-18T04:59:17.789Z,1.69
2022-09-18T05:02:17.913Z,1.12
2022-09-18T05:04:17.799Z,1.60
2022-09-18T05:05:17.798Z,1.16
2022-09-18T05:06:17.786Z,1.34
2022-09-18T05:07:17.799Z,1.18
2022-09-18T05:08:17.822Z,1.67
2022-09-18T05:09:17.830Z,1.37
2022-09-18T05:10:17.824Z,1.71
2022-09-18T05:11:17.808Z,1.11
2022-09-18T05:12:17.821Z,1.27
2022-09-18T05:16:17.960Z,1.30
2022-09-18T05:17:17.825Z,1.32
2022-09-18T05:18:17.813Z,1.28
2022-09-18T05:19:17.815Z,1.60
2022-09-18T05:22:17.846Z,1.34
2022-09-18T05:23:17.844Z,1.31
2022-09-18T05:24:17.842Z,1.68
2022-09-18T05:25:17.841Z,1.22
2022-09-18T05:26:17.841Z,1.46
2022-09-18T05:27:17.875Z,1.60
2022-09-18T05:28:17.870Z,1.33
2022-09-18T05:29:17.890Z,1.21
2022-09-18T05:30:17.873Z,1.56
2022-09-18T05:31:17.952Z,1.53
2022-09-18T05:34:17.871Z,1.53
2022-09-18T05:35:17.871Z,1.40
2022-09-18T05:36:17.867Z,1.28
2022-09-18T05:37:17.890Z,1.50
2022-09-18T05:38:17.896Z,1.24
2022-09-18T05:39:18.046Z,1.23
2022-09-18T05:40:17.945Z,1.30
2022-09-18T05:41:17.913Z,1.46
2022-09-18T05:42:17.886Z,1.25
2022-09-18T05:43:17.878Z,1.38
2022-09-18T05:45:17.896Z,1.24
2022-09-18T05:46:17.985Z,1.35
2022-09-18T05:47:17.897Z,0.98
2022-09-18T05:48:17.894Z,1.51
2022-09-18T05:49:17.908Z,1.76
2022-09-18T05:50:17.904Z,1.44
2022-09-18T05:51:17.940Z,1.40
2022-09-18T05:52:17.941Z,1.50
2022-09-18T05:53:17.925Z,1.47
2022-09-18T05:54:17.929Z,1.46
2022-09-18T05:55:17.926Z,1.25
2022-09-18T05:56:17.972Z,1.47
2022-09-18T05:57:17.930Z,1.66
2022-09-18T05:58:17.916Z,1.23
2022-09-18T05:59:17.958Z,1.40
2022-09-18T06:00:17.919Z,1.67
2022-09-18T06:01:17.944Z,1.40
2022-09-18T06:02:18.004Z,1.53
2022-09-18T06:03:17.995Z,1.37
2022-09-18T06:04:17.932Z,1.34
2022-09-18T06:05:17.929Z,1.28
2022-09-18T06:06:17.929Z,1.20
2022-09-18T06:07:17.949Z,1.52
2022-09-18T06:08:17.954Z,1.00
2022-09-18T06:09:17.953Z,1.18
2022-09-18T06:11:17.961Z,1.22
2022-09-18T06:12:17.993Z,1.32
2022-09-18T06:13:17.948Z,1.38
2022-09-18T06:14:18.010Z,1.45
2022-09-18T06:16:18.070Z,1.46
2022-09-18T06:17:17.993Z,1.37
2022-09-18T06:18:17.990Z,1.50
2022-09-18T06:19:17.987Z,1.55
2022-09-18T06:20:17.995Z,1.57
2022-09-18T06:21:18.002Z,1.52
2022-09-18T06:22:17.968Z,1.30
2022-09-18T06:23:17.999Z,1.38
2022-09-18T06:24:17.980Z,1.38
2022-09-18T06:25:17.981Z,1.48
2022-09-18T06:26:17.989Z,1.22
2022-09-18T06:27:17.985Z,1.59
2022-09-18T06:28:18.001Z,1.27
2022-09-18T06:29:18.017Z,1.23
2022-09-18T06:30:17.985Z,1.33
2022-09-18T06:31:18.129Z,1.22
2022-09-18T06:32:18.030Z,1.40
2022-09-18T06:34:18.023Z,1.36
2022-09-18T06:35:18.035Z,1.41
2022-09-18T06:36:18.040Z,1.43
2022-09-18T06:37:18.013Z,1.28
2022-09-18T06:38:18.011Z,1.45
2022-09-18T06:39:18.026Z,1.24
2022-09-18T06:40:18.071Z,1.32
2022-09-18T06:41:18.029Z,1.31
2022-09-18T06:42:18.031Z,1.47
2022-09-18T06:43:18.065Z,1.19
2022-09-18T06:44:18.046Z,1.13
2022-09-18T06:45:18.054Z,1.53
2022-09-18T06:46:18.137Z,1.18
2022-09-18T06:47:18.056Z,1.35
2022-09-18T06:48:18.038Z,1.28
2022-09-18T06:49:18.080Z,1.04
2022-09-18T06:50:18.051Z,1.03
2022-09-18T06:51:18.081Z,1.13
2022-09-18T06:52:18.059Z,1.00
2022-09-18T06:53:18.053Z,1.47
2022-09-18T06:54:18.063Z,0.80
2022-09-18T06:55:18.080Z,1.11
2022-09-18T06:56:18.095Z,1.17
2022-09-18T06:57:18.092Z,1.05
2022-09-18T06:58:18.091Z,1.20
2022-09-18T06:59:18.100Z,0.91
2022-09-18T07:00:18.079Z,1.00
2022-09-18T07:01:18.182Z,0.96
2022-09-18T07:02:19.720Z,1.06
2022-09-18T07:03:18.081Z,0.79
2022-09-18T07:04:18.109Z,0.85
2022-09-18T07:05:18.109Z,1.20
2022-09-18T07:06:18.097Z,1.08
2022-09-18T07:07:18.107Z,1.08
2022-09-18T07:08:18.090Z,1.05
2022-09-18T07:09:18.127Z,1.05
2022-09-18T07:10:18.121Z,1.22
2022-09-18T07:11:18.107Z,1.02
2022-09-18T07:12:18.129Z,1.05
2022-09-18T07:13:18.137Z,2.27
2022-09-18T07:14:18.121Z,1.88
2022-09-18T07:15:18.125Z,1.40
2022-09-18T07:16:18.158Z,1.00
2022-09-18T07:17:20.461Z,0.88
2022-09-18T07:18:18.139Z,0.92
2022-09-18T07:19:18.136Z,1.10
2022-09-18T07:20:18.141Z,1.16
2022-09-18T07:21:18.142Z,1.02
2022-09-18T07:22:18.147Z,1.15
2022-09-18T07:23:18.147Z,1.22
2022-09-18T07:24:18.169Z,1.45
2022-09-18T07:25:18.150Z,0.94
2022-09-18T07:26:18.156Z,1.09
2022-09-18T07:27:18.153Z,1.13
2022-09-18T07:28:18.150Z,1.11
2022-09-18T07:29:18.155Z,1.32
2022-09-18T07:30:18.196Z,0.99
2022-09-18T07:31:18.348Z,0.97
2022-09-18T07:32:18.194Z,1.02
2022-09-18T07:33:18.168Z,1.28
2022-09-18T07:34:18.192Z,1.20
2022-09-18T07:35:18.187Z,1.15
2022-09-18T07:36:18.204Z,0.95
2022-09-18T07:37:18.196Z,0.98
2022-09-18T07:38:18.185Z,0.95
2022-09-18T07:39:18.198Z,1.01
2022-09-18T07:40:18.290Z,0.84
2022-09-18T07:41:18.211Z,0.94
2022-09-18T07:42:18.218Z,1.07
2022-09-18T07:43:18.213Z,1.23
2022-09-18T07:44:18.197Z,1.00
2022-09-18T07:45:18.192Z,1.19
2022-09-18T07:46:18.302Z,1.32
2022-09-18T07:47:18.211Z,1.16
2022-09-18T07:48:18.222Z,0.98
2022-09-18T07:49:18.229Z,1.12
2022-09-18T07:50:18.224Z,0.97
2022-09-18T07:51:20.990Z,1.07
2022-09-18T07:52:18.232Z,1.10
2022-09-18T07:53:18.252Z,1.01
2022-09-18T07:54:18.226Z,0.85
2022-09-18T07:55:18.243Z,0.98
2022-09-18T07:56:18.250Z,0.97
2022-09-18T07:57:18.239Z,0.99
2022-09-18T07:58:18.262Z,1.14
2022-09-18T07:59:18.255Z,1.05
2022-09-18T08:00:18.233Z,0.72
2022-09-18T08:01:18.256Z,0.92
2022-09-18T08:02:18.324Z,1.13
2022-09-18T08:03:18.306Z,1.03
2022-09-18T08:04:18.248Z,1.09
2022-09-18T08:05:18.277Z,0.74
2022-09-18T08:06:18.255Z,0.89
2022-09-18T08:07:18.269Z,0.75
2022-09-18T08:08:18.267Z,1.42
2022-09-18T08:09:18.281Z,0.84
2022-09-18T08:10:18.290Z,1.05
2022-09-18T08:11:18.296Z,0.99
2022-09-18T08:12:18.284Z,0.94
2022-09-18T08:13:18.282Z,1.58
2022-09-18T08:14:18.303Z,0.74
2022-09-18T08:15:18.300Z,1.09
2022-09-18T08:16:18.360Z,1.18
2022-09-18T08:17:18.304Z,0.92
2022-09-18T08:18:18.296Z,1.12
2022-09-18T08:19:18.300Z,0.88
2022-09-18T08:20:18.298Z,1.05
2022-09-18T08:21:18.318Z,1.18
2022-09-18T08:22:18.543Z,1.18
2022-09-18T08:23:18.291Z,1.34
2022-09-18T08:24:18.334Z,1.13
2022-09-18T08:25:18.303Z,1.18
2022-09-18T08:26:22.121Z,0.83
2022-09-18T08:27:18.315Z,1.12
2022-09-18T08:28:18.365Z,0.86
2022-09-18T08:29:18.315Z,0.91
2022-09-18T08:30:18.342Z,1.13
2022-09-18T08:31:18.428Z,1.10
2022-09-18T08:32:18.344Z,1.06
2022-09-18T08:33:18.352Z,1.27
2022-09-18T08:34:18.354Z,0.99
2022-09-18T08:35:18.346Z,1.00
2022-09-18T08:36:18.386Z,0.75
2022-09-18T08:37:18.337Z,1.43
2022-09-18T08:38:18.335Z,1.28
2022-09-18T08:39:18.358Z,1.01
2022-09-18T08:40:18.392Z,0.91
2022-09-18T08:41:18.367Z,0.81
2022-09-18T08:42:20.768Z,0.78
2022-09-18T08:43:18.361Z,1.01
2022-09-18T08:44:18.376Z,0.96
2022-09-18T08:45:18.358Z,0.89
2022-09-18T08:46:18.425Z,0.54
2022-09-18T08:48:18.398Z,0.79
2022-09-18T08:49:18.379Z,0.73
2022-09-18T08:50:18.379Z,0.74
2022-09-18T08:51:18.403Z,0.97
2022-09-18T08:52:18.409Z,1.29
2022-09-18T08:53:18.397Z,0.83
2022-09-18T08:54:19.434Z,1.04
2022-09-18T08:55:18.410Z,0.95
2022-09-18T08:56:18.417Z,0.94
2022-09-18T08:57:18.402Z,0.82
2022-09-18T08:58:18.411Z,0.67
2022-09-18T08:59:18.408Z,0.71
2022-09-18T09:00:18.553Z,0.72
2022-09-18T09:01:18.474Z,0.80
2022-09-18T09:02:21.785Z,0.81
2022-09-18T09:03:18.410Z,0.94
2022-09-18T09:04:18.407Z,0.67
2022-09-18T09:05:18.448Z,0.83
2022-09-18T09:06:18.431Z,0.74
2022-09-18T09:07:18.465Z,0.79
2022-09-18T09:08:18.480Z,0.83
2022-09-18T09:09:21.350Z,1.14
2022-09-18T09:10:18.486Z,0.87
2022-09-18T09:11:18.424Z,1.05
2022-09-18T09:12:18.458Z,0.72
2022-09-18T09:13:18.472Z,0.86
2022-09-18T09:14:26.614Z,1.25
2022-09-18T09:15:21.705Z,1.09
2022-09-18T09:16:18.516Z,1.04
2022-09-18T09:17:18.460Z,0.91
2022-09-18T09:18:18.475Z,1.09
2022-09-18T09:21:18.476Z,0.74
2022-09-18T09:22:18.473Z,0.75
2022-09-18T09:23:18.496Z,0.91
2022-09-18T09:24:18.533Z,1.00
2022-09-18T09:25:18.485Z,1.24
2022-09-18T09:26:18.468Z,0.80
2022-09-18T09:27:18.495Z,0.79
2022-09-18T09:28:18.492Z,1.07
2022-09-18T09:29:18.466Z,0.71
2022-09-18T09:30:18.515Z,0.80
2022-09-18T09:31:18.565Z,0.73
2022-09-18T09:32:18.506Z,0.64
2022-09-18T09:33:18.502Z,0.53
2022-09-18T09:34:18.487Z,0.40
2022-09-18T09:35:18.565Z,0.81
2022-09-18T09:36:18.524Z,0.84
2022-09-18T09:37:18.508Z,0.81
2022-09-18T09:38:18.533Z,0.76
2022-09-18T09:39:18.500Z,0.64
2022-09-18T09:40:18.636Z,0.64
2022-09-18T09:41:18.504Z,0.99
2022-09-18T09:42:18.525Z,1.07
2022-09-18T09:43:18.503Z,0.83
2022-09-18T09:44:18.544Z,0.91
2022-09-18T09:45:18.536Z,1.19
2022-09-18T09:46:21.457Z,0.96
2022-09-18T09:47:18.651Z,0.81
2022-09-18T09:48:18.535Z,0.80
2022-09-18T09:49:18.524Z,0.97
2022-09-18T09:50:18.553Z,1.23
2022-09-18T09:51:18.529Z,0.93
2022-09-18T09:52:18.576Z,0.68
2022-09-18T09:53:18.559Z,0.72
2022-09-18T09:54:18.551Z,0.64
2022-09-18T09:55:18.536Z,1.08
2022-09-18T09:56:18.550Z,0.55
2022-09-18T09:57:18.572Z,0.71
2022-09-18T09:58:18.572Z,0.95
2022-09-18T09:59:18.556Z,0.56
2022-09-18T10:00:18.563Z,0.59
2022-09-18T10:01:18.656Z,0.83
2022-09-18T10:02:18.757Z,0.87
2022-09-18T10:03:18.575Z,1.00
2022-09-18T10:04:18.578Z,0.46
2022-09-18T10:05:18.595Z,0.65
2022-09-18T10:06:18.589Z,0.89
2022-09-18T10:07:18.585Z,0.68
2022-09-18T10:08:18.585Z,0.93
2022-09-18T10:09:18.585Z,0.65
2022-09-18T10:10:18.597Z,0.95
2022-09-18T10:11:18.637Z,0.90
2022-09-18T10:12:18.603Z,0.72
2022-09-18T10:13:18.600Z,1.14
2022-09-18T10:15:18.662Z,0.67
2022-09-18T10:16:18.649Z,0.64
2022-09-18T10:17:18.645Z,0.86
2022-09-18T10:18:18.635Z,0.74
2022-09-18T10:19:18.620Z,1.16
2022-09-18T10:20:18.638Z,0.83
2022-09-18T10:21:18.645Z,1.01
2022-09-18T10:22:18.647Z,0.65
2022-09-18T10:23:18.696Z,0.69
2022-09-18T10:24:18.675Z,0.63
2022-09-18T10:25:18.702Z,0.73
2022-09-18T10:26:18.655Z,0.80
2022-09-18T10:27:18.694Z,0.77
2022-09-18T10:28:18.680Z,0.80
2022-09-18T10:29:18.685Z,0.72
2022-09-18T10:30:18.721Z,1.44
2022-09-18T10:31:18.715Z,0.73
2022-09-18T10:32:18.676Z,0.86
2022-09-18T10:33:18.676Z,0.77
2022-09-18T10:34:18.678Z,0.67
2022-09-18T10:35:18.688Z,0.80
2022-09-18T10:36:18.671Z,0.75
2022-09-18T10:37:18.698Z,0.78
2022-09-18T10:38:20.174Z,0.63
2022-09-18T10:39:18.702Z,0.99
2022-09-18T10:40:18.747Z,0.78
2022-09-18T10:41:18.680Z,0.87
2022-09-18T10:42:18.678Z,0.70
2022-09-18T10:43:18.688Z,0.68
2022-09-18T10:44:18.690Z,0.85
2022-09-18T10:45:18.713Z,0.76
2022-09-18T10:46:18.739Z,1.04
2022-09-18T10:47:18.699Z,1.01
2022-09-18T10:48:18.709Z,0.85
2022-09-18T10:49:18.692Z,0.83
2022-09-18T10:50:18.701Z,0.87
2022-09-18T10:51:18.719Z,0.90
2022-09-18T10:52:18.720Z,0.89
2022-09-18T10:53:18.699Z,0.74
2022-09-18T10:54:18.704Z,0.97
2022-09-18T10:55:18.733Z,0.83
2022-09-18T10:56:18.725Z,0.68
2022-09-18T10:57:18.721Z,0.76
2022-09-18T10:58:18.730Z,0.67
2022-09-18T11:00:18.739Z,0.80
2022-09-18T11:01:18.792Z,0.80
2022-09-18T11:02:18.782Z,0.93
2022-09-18T11:03:18.755Z,0.86
2022-09-18T11:04:18.734Z,0.69
2022-09-18T11:05:18.744Z,0.76
2022-09-18T11:06:18.765Z,1.01
2022-09-18T11:07:21.338Z,0.94
2022-09-18T11:08:18.764Z,0.77
2022-09-18T11:09:18.727Z,1.10
2022-09-18T11:10:18.738Z,0.86
2022-09-18T11:11:18.755Z,0.77
2022-09-18T11:12:18.752Z,0.91
2022-09-18T11:13:18.784Z,0.87
2022-09-18T11:14:18.755Z,0.67
2022-09-18T11:15:18.785Z,0.71
2022-09-18T11:16:18.831Z,0.77
2022-09-18T11:18:18.772Z,1.06
2022-09-18T11:19:18.780Z,0.98
2022-09-18T11:20:18.776Z,0.76
2022-09-18T11:21:18.796Z,0.80
2022-09-18T11:22:18.786Z,0.98
2022-09-18T11:23:18.806Z,0.80
2022-09-18T11:24:18.806Z,0.71
2022-09-18T11:27:18.787Z,1.01
2022-09-18T11:28:18.820Z,0.65
2022-09-18T11:29:18.801Z,0.92
2022-09-18T11:31:18.942Z,0.91
2022-09-18T11:32:18.800Z,0.86
2022-09-18T11:33:18.808Z,1.07
2022-09-18T11:34:18.826Z,1.00
2022-09-18T11:35:18.808Z,1.06
2022-09-18T11:36:18.823Z,0.78
2022-09-18T11:37:18.825Z,0.88
2022-09-18T11:38:18.825Z,0.77
2022-09-18T11:40:18.926Z,0.99
2022-09-18T11:41:18.839Z,0.97
2022-09-18T11:42:18.832Z,0.81
2022-09-18T11:43:18.833Z,0.94
2022-09-18T11:44:18.821Z,0.60
2022-09-18T11:45:18.864Z,0.89
2022-09-18T11:46:19.046Z,0.88
2022-09-18T11:47:18.847Z,1.17
2022-09-18T11:48:18.844Z,1.00
2022-09-18T11:49:18.859Z,1.29
2022-09-18T11:50:18.876Z,1.50
2022-09-18T11:51:18.853Z,1.34
2022-09-18T11:52:18.845Z,1.31
2022-09-18T11:53:18.856Z,1.09
2022-09-18T11:54:18.860Z,0.94
2022-09-18T11:55:18.877Z,0.98
2022-09-18T11:57:18.937Z,0.77
2022-09-18T11:58:18.884Z,0.70
2022-09-18T11:59:18.857Z,0.79
2022-09-18T12:00:18.891Z,0.89
2022-09-18T12:01:18.887Z,1.23
2022-09-18T12:02:19.047Z,0.89
2022-09-18T12:03:18.892Z,0.80
2022-09-18T12:04:18.887Z,0.90
2022-09-18T12:06:18.881Z,0.80
2022-09-18T12:08:17.550Z,0.95
2022-09-18T12:09:17.571Z,0.84
2022-09-18T12:10:17.556Z,0.91
2022-09-18T12:11:17.573Z,0.87
2022-09-18T12:12:17.579Z,1.03
2022-09-18T12:13:17.538Z,1.17
2022-09-18T12:14:17.572Z,1.07
2022-09-18T12:15:17.570Z,1.06
2022-09-18T12:16:17.615Z,0.87
2022-09-18T12:17:17.569Z,1.03
2022-09-18T12:18:17.581Z,0.62
2022-09-18T12:19:17.581Z,0.90
2022-09-18T12:20:17.572Z,0.89
2022-09-18T12:22:17.580Z,0.96
2022-09-18T12:23:17.572Z,0.60
2022-09-18T12:24:17.577Z,1.20
2022-09-18T12:25:17.579Z,0.78
2022-09-18T12:26:17.582Z,0.88
2022-09-18T12:27:17.593Z,0.88
2022-09-18T12:28:17.588Z,1.15
2022-09-18T12:29:17.591Z,0.85
2022-09-18T12:30:17.601Z,1.08
2022-09-18T12:31:17.699Z,1.14
2022-09-18T12:32:17.597Z,1.97
2022-09-18T12:33:17.604Z,1.25
2022-09-18T12:34:17.612Z,1.05
2022-09-18T12:35:17.601Z,1.34
2022-09-18T12:36:17.602Z,1.54
2022-09-18T12:37:17.614Z,1.28
2022-09-18T12:38:17.611Z,1.11
2022-09-18T12:39:18.272Z,1.59
2022-09-18T12:40:18.380Z,0.90
2022-09-18T12:41:18.289Z,1.10
2022-09-18T12:43:18.295Z,0.84
2022-09-18T12:44:18.278Z,1.21
2022-09-18T12:45:18.283Z,1.07
2022-09-18T12:46:18.279Z,1.23
2022-09-18T12:47:18.296Z,1.03
2022-09-18T12:48:18.287Z,0.92
2022-09-18T12:49:18.289Z,1.08
2022-09-18T12:50:18.301Z,1.28
2022-09-18T12:51:18.290Z,0.84
2022-09-18T12:52:18.302Z,1.45
2022-09-18T12:53:18.302Z,1.11
2022-09-18T12:54:18.301Z,1.38
2022-09-18T12:55:18.290Z,1.15
2022-09-18T12:56:18.321Z,1.15
2022-09-18T12:57:18.300Z,0.78
2022-09-18T12:58:18.297Z,0.72
2022-09-18T12:59:18.339Z,0.77
2022-09-18T13:00:18.299Z,1.13
2022-09-18T13:02:18.321Z,1.09
2022-09-18T13:03:18.427Z,1.17
2022-09-18T13:04:18.339Z,1.02
2022-09-18T13:05:18.312Z,0.95
2022-09-18T13:06:18.322Z,1.21
2022-09-18T13:07:18.344Z,0.90
2022-09-18T13:08:18.322Z,1.09
2022-09-18T13:09:20.065Z,1.08
2022-09-18T13:10:18.319Z,1.04
2022-09-18T13:11:18.363Z,0.77
2022-09-18T13:12:18.336Z,1.36
2022-09-18T13:13:18.337Z,1.04
2022-09-18T13:14:18.371Z,0.94
2022-09-18T13:15:18.333Z,1.09
2022-09-18T13:16:19.151Z,1.22
2022-09-18T13:17:19.081Z,1.08
2022-09-18T13:18:19.063Z,1.04
2022-09-18T13:19:19.093Z,0.89
2022-09-18T13:20:19.069Z,1.01
2022-09-18T13:21:19.078Z,0.94
2022-09-18T13:22:19.088Z,1.30
2022-09-18T13:23:19.069Z,1.04
2022-09-18T13:24:19.069Z,1.18
2022-09-18T13:25:19.105Z,0.85
2022-09-18T13:26:19.079Z,1.02
2022-09-18T13:27:19.100Z,0.92
2022-09-18T13:28:19.081Z,0.72
2022-09-18T13:29:19.117Z,0.79
2022-09-18T13:30:19.118Z,0.90
2022-09-18T13:31:19.169Z,0.80
2022-09-18T13:32:19.087Z,1.24
2022-09-18T13:33:19.698Z,1.37
2022-09-18T13:36:19.162Z,1.19
2022-09-18T13:37:19.117Z,1.18
2022-09-18T13:38:19.113Z,1.03
2022-09-18T13:39:19.101Z,1.13
2022-09-18T13:40:19.156Z,1.29
2022-09-18T13:41:19.133Z,0.89
2022-09-18T13:42:19.124Z,1.04
2022-09-18T13:43:19.140Z,0.78
2022-09-18T13:44:19.114Z,0.94
2022-09-18T13:45:19.118Z,1.44
2022-09-18T13:46:19.178Z,1.59
2022-09-18T13:47:19.136Z,1.04
2022-09-18T13:48:19.143Z,0.91
2022-09-18T13:49:19.124Z,0.93
2022-09-18T13:50:19.134Z,0.87
2022-09-18T13:51:19.173Z,1.16
2022-09-18T13:52:19.133Z,0.82
2022-09-18T13:53:19.122Z,0.95
2022-09-18T13:55:19.150Z,0.90
2022-09-18T13:56:19.151Z,1.08
2022-09-18T13:57:19.150Z,0.85
2022-09-18T13:58:19.148Z,0.76
2022-09-18T13:59:19.199Z,1.05
2022-09-18T14:00:19.159Z,0.85
2022-09-18T14:01:19.214Z,0.97
2022-09-18T14:02:19.260Z,1.05
2022-09-18T14:03:19.183Z,1.03
2022-09-18T14:04:19.169Z,1.19
2022-09-18T14:05:19.166Z,0.95
2022-09-18T14:06:19.163Z,0.84
2022-09-18T14:07:19.163Z,1.01
2022-09-18T14:08:19.185Z,0.79
2022-09-18T14:09:19.175Z,1.18
2022-09-18T14:10:19.171Z,0.88
2022-09-18T14:11:19.186Z,1.22
2022-09-18T14:12:19.168Z,1.22
2022-09-18T14:13:19.209Z,1.16
2022-09-18T14:14:19.205Z,0.96
2022-09-18T14:15:19.170Z,0.95
2022-09-18T14:16:19.373Z,0.97
2022-09-18T14:17:19.196Z,1.17
2022-09-18T14:18:19.215Z,1.13
2022-09-18T14:19:19.205Z,0.78
2022-09-18T14:20:19.200Z,1.33
2022-09-18T14:21:19.213Z,1.19
2022-09-18T14:22:19.229Z,1.02
2022-09-18T14:23:19.231Z,0.85
2022-09-18T14:24:19.192Z,1.07
2022-09-18T14:25:19.219Z,1.20
2022-09-18T14:27:19.225Z,1.13
2022-09-18T14:28:19.224Z,1.25
2022-09-18T14:29:19.218Z,0.78
2022-09-18T14:30:19.220Z,0.97
2022-09-18T14:31:19.275Z,1.10
2022-09-18T14:32:19.235Z,1.12
2022-09-18T14:33:19.244Z,0.89
2022-09-18T14:34:19.240Z,0.90
2022-09-18T14:35:19.247Z,0.81
2022-09-18T14:36:19.218Z,1.39
2022-09-18T14:37:19.259Z,1.14
2022-09-18T14:38:19.268Z,1.52
2022-09-18T14:39:19.263Z,0.89
2022-09-18T14:40:19.403Z,1.21
2022-09-18T14:41:19.568Z,1.13